Moby Aki — IBVV — position and weather

sailwx.info

Track history (hours):
 
Tides and Currents Weather Stations Pressure Air Temp Water Temp Dewpoint Dewpoint Depression Visibility Wind Speed Wind Dir Waves Ship Positions

Moby Aki

Last reported at 2014-Sep-03 06:33 UTC. Time now 2014-Sep-03 07:06 UTC.
Position N 40°55' E 009°32'.

Length 175 m; draft 6.9 m.

Type: Passenger vessel. MMSI: 247132400.

Date/timePositionNaut miles runAvg speedWind from/ knotsBaromVisibWave heightAir tempDewpointWater temp
2014-Sep-03 06:33N 40°55' E 009°32'0 0.4
2014-Sep-03 05:33N 40°55' E 009°31'0 0.1
2014-Sep-03 04:33N 40°55' E 009°32'12519.9
2014-Sep-02 22:17N 42°58' E 010°02'1521.0
2014-Sep-02 21:34N 43°13' E 010°07'2120.6
2014-Sep-02 20:34N 43°32' E 010°17'1 0.9
2014-Sep-02 19:34N 43°33' E 010°18'0 0.0
2014-Sep-02 18:34N 43°33' E 010°18'0 0.0
2014-Sep-02 17:33N 43°33' E 010°18'0 0.0
2014-Sep-02 16:33N 43°33' E 010°18'1212.0
2014-Sep-02 15:34N 43°22' E 010°11'2525.4
2014-Sep-02 14:34N 42°57' E 010°04'12423.3
2014-Sep-02 09:13N 40°55' E 009°33'1 1.9
2014-Sep-02 08:33N 40°55' E 009°31'0 0.0
2014-Sep-02 07:33N 40°55' E 009°31'0 0.2
2014-Sep-02 06:33N 40°55' E 009°32'11923.9
2014-Sep-02 01:34N 42°53' E 010°01'2626.5
2014-Sep-02 00:34N 43°18' E 010°10'1615.9
2014-Sep-01 23:33N 43°33' E 010°18'0 0.0
2014-Sep-01 22:33N 43°33' E 010°18'0 0.0
2014-Sep-01 21:33N 43°33' E 010°18'1717.0
2014-Sep-01 20:33N 43°17' E 010°10'14524.1
2014-Sep-01 14:33N 40°55' E 009°32'0 0.1
2014-Sep-01 13:07N 40°55' E 009°31'0 0.3
2014-Sep-01 12:33N 40°55' E 009°32'12324.4
2014-Sep-01 07:32N 42°56' E 010°03'2627.2
2014-Sep-01 06:34N 43°22' E 010°11'1212.4
2014-Sep-01 05:34N 43°33' E 010°18'0 0.0
2014-Sep-01 04:33N 43°33' E 010°18'9 8.6
2014-Sep-01 03:33N 43°25' E 010°13'15225.2
2014-Aug-31 21:31N 40°56' E 009°35'3 3.0
2014-Aug-31 20:33N 40°55' E 009°31'1 0.9
2014-Aug-31 19:33N 40°55' E 009°33'7822.3
2014-Aug-31 16:03N 42°05' E 010°19'1426.7
2014-Aug-31 15:32N 42°18' E 010°26'2626.5
2014-Aug-31 14:34N 42°44' E 010°32'3 1.6
2014-Aug-31 12:28N 42°47' E 010°33'12024.4
2014-Aug-31 07:33N 40°55' E 009°32'1 0.5
2014-Aug-31 06:33N 40°55' E 009°31'2 2.0
2014-Aug-31 05:33N 40°55' E 009°34'12625.3
2014-Aug-31 00:34N 42°60' E 010°04'2727.0
2014-Aug-30 23:34N 43°26' E 010°12'8 8.4
2014-Aug-30 22:33N 43°33' E 010°18'0 0.0
2014-Aug-30 21:33N 43°33' E 010°18'1414.3
2014-Aug-30 20:33N 43°20' E 010°11'2525.5
2014-Aug-30 19:34N 42°55' E 010°03'8426.0
2014-Aug-30 16:20N 41°32' E 009°47'2225.7
2014-Aug-30 15:30N 41°11' E 009°43'1718.4
2014-Aug-30 14:33N 40°55' E 009°32'0 0.5
2014-Aug-30 13:32N 40°55' E 009°31'0 0.1
2014-Aug-30 12:33N 40°55' E 009°32'2620.0
2014-Aug-30 11:14N 41°20' E 009°45'7326.5
2014-Aug-30 08:30N 42°32' E 009°58'2526.2
2014-Aug-30 07:33N 42°56' E 010°03'2726.6
2014-Aug-30 06:34N 43°22' E 010°11'1211.8
2014-Aug-30 05:31N 43°33' E 010°18'0 0.0
2014-Aug-30 04:31N 43°33' E 010°18'5 5.5
2014-Aug-30 03:33N 43°29' E 010°14'2424.5
2014-Aug-30 02:33N 43°05' E 010°07'3525.1
2014-Aug-30 01:10N 42°31' E 009°56'1525.0
2014-Aug-30 00:34N 42°16' E 009°54'8220.6
2014-Aug-29 20:33N 40°55' E 009°31'7 3.3
2014-Aug-29 18:24N 40°58' E 009°40'2626.5
2014-Aug-29 17:25N 41°22' E 009°55'2924.4
2014-Aug-29 16:12N 41°49' E 010°10'4726.1
2014-Aug-29 14:24N 42°33' E 010°31'2226.0
2014-Aug-29 13:33N 42°55' E 010°34'1 0.7
2014-Aug-29 12:33N 42°56' E 010°33'2823.9
2014-Aug-29 11:24N 42°28' E 010°29'2425.9
2014-Aug-29 10:28N 42°05' E 010°20'2526.0
2014-Aug-29 09:32N 41°43' E 010°07'5423.8
2014-Aug-29 07:16N 40°55' E 009°33'1 1.7
2014-Aug-29 06:33N 40°55' E 009°31'0 0.4
2014-Aug-29 05:33N 40°55' E 009°32'10524.5
2014-Aug-29 01:17N 42°38' E 009°57'4810.1
2014-Aug-28 20:34N 43°25' E 010°13'2525.1
2014-Aug-28 19:34N 43°00' E 010°05'2625.8
2014-Aug-28 18:33N 42°35' E 009°58'10124.9
2014-Aug-28 14:30N 40°55' E 009°35'3 2.8
2014-Aug-28 13:33N 40°55' E 009°31'0 0.0
2014-Aug-28 12:30N 40°55' E 009°31'12124.2
2014-Aug-28 07:28N 42°55' E 010°01'2527.0
2014-Aug-28 06:34N 43°19' E 010°08'1616.0
2014-Aug-28 05:33N 43°33' E 010°18'0 0.0
2014-Aug-28 04:33N 43°33' E 010°18'6 5.5
2014-Aug-28 03:33N 43°29' E 010°14'2322.7
2014-Aug-28 02:33N 43°07' E 010°06'13422.3
2014-Aug-27 20:33N 40°55' E 009°32'0 0.2
2014-Aug-27 18:31N 40°55' E 009°31'5618.8
2014-Aug-27 15:32N 41°44' E 010°08'2926.1
2014-Aug-27 14:26N 42°11' E 010°23'2326.0
2014-Aug-27 13:33N 42°33' E 010°30'20 9.4
2014-Aug-27 11:27N 42°52' E 010°34'12116.4
2014-Aug-27 04:06N 40°58' E 009°40'1120.4
2014-Aug-27 03:33N 41°09' E 009°45'10520.0
2014-Aug-26 22:19N 42°53' E 010°01'1519.9
2014-Aug-26 21:33N 43°08' E 010°05'2020.0
2014-Aug-26 20:33N 43°27' E 010°12'7 7.0
2014-Aug-26 19:31N 43°33' E 010°18'0 0.0
2014-Aug-26 18:31N 43°33' E 010°18'0 0.0
2014-Aug-26 17:28N 43°33' E 010°18'0 0.1
2014-Aug-26 16:34N 43°33' E 010°18'1717.5
2014-Aug-26 15:33N 43°17' E 010°09'2323.5
2014-Aug-26 14:34N 42°54' E 010°01'12122.6
2014-Aug-26 09:13N 40°55' E 009°33'1 1.4
2014-Aug-26 08:14N 40°55' E 009°31'0 0.0
2014-Aug-26 07:32N 40°55' E 009°31'0 0.0
2014-Aug-26 05:32N 40°55' E 009°31'11721.9
2014-Aug-26 00:12N 42°50' E 010°01'1726.8
2014-Aug-25 23:33N 43°07' E 010°06'2625.6
2014-Aug-25 22:33N 43°32' E 010°15'2 2.4
2014-Aug-25 21:33N 43°33' E 010°18'7 7.4
2014-Aug-25 20:33N 43°27' E 010°13'2625.1
2014-Aug-25 19:31N 43°01' E 010°05'12824.6
2014-Aug-25 14:18N 40°55' E 009°33'2 1.4
2014-Aug-25 13:10N 40°55' E 009°31'0 0.3
2014-Aug-25 12:32N 40°55' E 009°32'12524.3
2014-Aug-25 07:22N 42°59' E 010°02'2227.3
2014-Aug-25 06:34N 43°20' E 010°08'1514.2
2014-Aug-25 05:32N 43°33' E 010°18'0 0.0
2014-Aug-25 04:32N 43°33' E 010°18'6 5.7
2014-Aug-25 03:34N 43°29' E 010°13'2323.3
2014-Aug-25 02:34N 43°06' E 010°06'13322.2
2014-Aug-24 20:33N 40°55' E 009°32'1 0.8
2014-Aug-24 19:31N 40°55' E 009°31'0 0.0
2014-Aug-24 18:28N 40°55' E 009°31'11115.3
2014-Aug-24 11:16N 42°37' E 010°31'  
Track history (hours):
 
Tides and Currents Weather Stations Pressure Air Temp Water Temp Dewpoint Dewpoint Depression Visibility Wind Speed Wind Dir Waves Ship Positions

Moby Aki

Last reported at 2014-Sep-03 06:33 UTC. Time now 2014-Sep-03 07:06 UTC.
Position N 40°55' E 009°32'.

Length 175 m; draft 6.9 m.

Type: Passenger vessel. MMSI: 247132400.

Date/timePositionNaut miles runAvg speedWind from/ knotsBaromVisibWave heightAir tempDewpointWater temp
2014-Sep-03 06:33N 40°55' E 009°32'0 0.4
2014-Sep-03 05:33N 40°55' E 009°31'0 0.1
2014-Sep-03 04:33N 40°55' E 009°32'12519.9
2014-Sep-02 22:17N 42°58' E 010°02'1521.0
2014-Sep-02 21:34N 43°13' E 010°07'2120.6
2014-Sep-02 20:34N 43°32' E 010°17'1 0.9
2014-Sep-02 19:34N 43°33' E 010°18'0 0.0
2014-Sep-02 18:34N 43°33' E 010°18'0 0.0
2014-Sep-02 17:33N 43°33' E 010°18'0 0.0
2014-Sep-02 16:33N 43°33' E 010°18'1212.0
2014-Sep-02 15:34N 43°22' E 010°11'2525.4
2014-Sep-02 14:34N 42°57' E 010°04'12423.3
2014-Sep-02 09:13N 40°55' E 009°33'1 1.9
2014-Sep-02 08:33N 40°55' E 009°31'0 0.0
2014-Sep-02 07:33N 40°55' E 009°31'0 0.2
2014-Sep-02 06:33N 40°55' E 009°32'11923.9
2014-Sep-02 01:34N 42°53' E 010°01'2626.5
2014-Sep-02 00:34N 43°18' E 010°10'1615.9
2014-Sep-01 23:33N 43°33' E 010°18'0 0.0
2014-Sep-01 22:33N 43°33' E 010°18'0 0.0
2014-Sep-01 21:33N 43°33' E 010°18'1717.0
2014-Sep-01 20:33N 43°17' E 010°10'14524.1
2014-Sep-01 14:33N 40°55' E 009°32'0 0.1
2014-Sep-01 13:07N 40°55' E 009°31'0 0.3
2014-Sep-01 12:33N 40°55' E 009°32'12324.4
2014-Sep-01 07:32N 42°56' E 010°03'2627.2
2014-Sep-01 06:34N 43°22' E 010°11'1212.4
2014-Sep-01 05:34N 43°33' E 010°18'0 0.0
2014-Sep-01 04:33N 43°33' E 010°18'9 8.6
2014-Sep-01 03:33N 43°25' E 010°13'15225.2
2014-Aug-31 21:31N 40°56' E 009°35'3 3.0
2014-Aug-31 20:33N 40°55' E 009°31'1 0.9
2014-Aug-31 19:33N 40°55' E 009°33'7822.3
2014-Aug-31 16:03N 42°05' E 010°19'1426.7
2014-Aug-31 15:32N 42°18' E 010°26'2626.5
2014-Aug-31 14:34N 42°44' E 010°32'3 1.6
2014-Aug-31 12:28N 42°47' E 010°33'12024.4
2014-Aug-31 07:33N 40°55' E 009°32'1 0.5
2014-Aug-31 06:33N 40°55' E 009°31'2 2.0
2014-Aug-31 05:33N 40°55' E 009°34'12625.3
2014-Aug-31 00:34N 42°60' E 010°04'2727.0
2014-Aug-30 23:34N 43°26' E 010°12'8 8.4
2014-Aug-30 22:33N 43°33' E 010°18'0 0.0
2014-Aug-30 21:33N 43°33' E 010°18'1414.3
2014-Aug-30 20:33N 43°20' E 010°11'2525.5
2014-Aug-30 19:34N 42°55' E 010°03'8426.0
2014-Aug-30 16:20N 41°32' E 009°47'2225.7
2014-Aug-30 15:30N 41°11' E 009°43'1718.4
2014-Aug-30 14:33N 40°55' E 009°32'0 0.5
2014-Aug-30 13:32N 40°55' E 009°31'0 0.1
2014-Aug-30 12:33N 40°55' E 009°32'2620.0
2014-Aug-30 11:14N 41°20' E 009°45'7326.5
2014-Aug-30 08:30N 42°32' E 009°58'2526.2
2014-Aug-30 07:33N 42°56' E 010°03'2726.6
2014-Aug-30 06:34N 43°22' E 010°11'1211.8
2014-Aug-30 05:31N 43°33' E 010°18'0 0.0
2014-Aug-30 04:31N 43°33' E 010°18'5 5.5
2014-Aug-30 03:33N 43°29' E 010°14'2424.5
2014-Aug-30 02:33N 43°05' E 010°07'3525.1
2014-Aug-30 01:10N 42°31' E 009°56'1525.0
2014-Aug-30 00:34N 42°16' E 009°54'8220.6
2014-Aug-29 20:33N 40°55' E 009°31'7 3.3
2014-Aug-29 18:24N 40°58' E 009°40'2626.5
2014-Aug-29 17:25N 41°22' E 009°55'2924.4
2014-Aug-29 16:12N 41°49' E 010°10'4726.1
2014-Aug-29 14:24N 42°33' E 010°31'2226.0
2014-Aug-29 13:33N 42°55' E 010°34'1 0.7
2014-Aug-29 12:33N 42°56' E 010°33'2823.9
2014-Aug-29 11:24N 42°28' E 010°29'2425.9
2014-Aug-29 10:28N 42°05' E 010°20'2526.0
2014-Aug-29 09:32N 41°43' E 010°07'5423.8
2014-Aug-29 07:16N 40°55' E 009°33'1 1.7
2014-Aug-29 06:33N 40°55' E 009°31'0 0.4
2014-Aug-29 05:33N 40°55' E 009°32'10524.5
2014-Aug-29 01:17N 42°38' E 009°57'4810.1
2014-Aug-28 20:34N 43°25' E 010°13'2525.1
2014-Aug-28 19:34N 43°00' E 010°05'2625.8
2014-Aug-28 18:33N 42°35' E 009°58'10124.9
2014-Aug-28 14:30N 40°55' E 009°35'3 2.8
2014-Aug-28 13:33N 40°55' E 009°31'0 0.0
2014-Aug-28 12:30N 40°55' E 009°31'12124.2
2014-Aug-28 07:28N 42°55' E 010°01'2527.0
2014-Aug-28 06:34N 43°19' E 010°08'1616.0
2014-Aug-28 05:33N 43°33' E 010°18'0 0.0
2014-Aug-28 04:33N 43°33' E 010°18'6 5.5
2014-Aug-28 03:33N 43°29' E 010°14'2322.7
2014-Aug-28 02:33N 43°07' E 010°06'13422.3
2014-Aug-27 20:33N 40°55' E 009°32'0 0.2
2014-Aug-27 18:31N 40°55' E 009°31'5618.8
2014-Aug-27 15:32N 41°44' E 010°08'2926.1
2014-Aug-27 14:26N 42°11' E 010°23'2326.0
2014-Aug-27 13:33N 42°33' E 010°30'20 9.4
2014-Aug-27 11:27N 42°52' E 010°34'12116.4
2014-Aug-27 04:06N 40°58' E 009°40'1120.4
2014-Aug-27 03:33N 41°09' E 009°45'10520.0
2014-Aug-26 22:19N 42°53' E 010°01'1519.9
2014-Aug-26 21:33N 43°08' E 010°05'2020.0
2014-Aug-26 20:33N 43°27' E 010°12'7 7.0
2014-Aug-26 19:31N 43°33' E 010°18'0 0.0
2014-Aug-26 18:31N 43°33' E 010°18'0 0.0
2014-Aug-26 17:28N 43°33' E 010°18'0 0.1
2014-Aug-26 16:34N 43°33' E 010°18'1717.5
2014-Aug-26 15:33N 43°17' E 010°09'2323.5
2014-Aug-26 14:34N 42°54' E 010°01'12122.6
2014-Aug-26 09:13N 40°55' E 009°33'1 1.4
2014-Aug-26 08:14N 40°55' E 009°31'0 0.0
2014-Aug-26 07:32N 40°55' E 009°31'0 0.0
2014-Aug-26 05:32N 40°55' E 009°31'11721.9
2014-Aug-26 00:12N 42°50' E 010°01'1726.8
2014-Aug-25 23:33N 43°07' E 010°06'2625.6
2014-Aug-25 22:33N 43°32' E 010°15'2 2.4
2014-Aug-25 21:33N 43°33' E 010°18'7 7.4
2014-Aug-25 20:33N 43°27' E 010°13'2625.1
2014-Aug-25 19:31N 43°01' E 010°05'12824.6
2014-Aug-25 14:18N 40°55' E 009°33'2 1.4
2014-Aug-25 13:10N 40°55' E 009°31'0 0.3
2014-Aug-25 12:32N 40°55' E 009°32'12524.3
2014-Aug-25 07:22N 42°59' E 010°02'2227.3
2014-Aug-25 06:34N 43°20' E 010°08'1514.2
2014-Aug-25 05:32N 43°33' E 010°18'0 0.0
2014-Aug-25 04:32N 43°33' E 010°18'6 5.7
2014-Aug-25 03:34N 43°29' E 010°13'2323.3
2014-Aug-25 02:34N 43°06' E 010°06'13322.2
2014-Aug-24 20:33N 40°55' E 009°32'1 0.8
2014-Aug-24 19:31N 40°55' E 009°31'0 0.0
2014-Aug-24 18:28N 40°55' E 009°31'11115.3
2014-Aug-24 11:16N 42°37' E 010°31'  

Dump ship's entire track history